sensor_id;sensor_type;location;lat;lon;timestamp;temperature;humidity
59301;DHT22;45073;52.740;6.784;2022-08-19T00:01:17;17.60;99.90
59301;DHT22;45073;52.740;6.784;2022-08-19T00:03:42;17.50;99.90
59301;DHT22;45073;52.740;6.784;2022-08-19T00:06:08;17.50;99.90
59301;DHT22;45073;52.740;6.784;2022-08-19T00:08:34;17.50;99.90
59301;DHT22;45073;52.740;6.784;2022-08-19T00:11:00;17.50;99.90
59301;DHT22;45073;52.740;6.784;2022-08-19T00:13:25;17.50;99.90
59301;DHT22;45073;52.740;6.784;2022-08-19T00:15:54;17.50;99.90
59301;DHT22;45073;52.740;6.784;2022-08-19T00:18:19;17.50;99.90
59301;DHT22;45073;52.740;6.784;2022-08-19T00:20:45;17.50;99.90
59301;DHT22;45073;52.740;6.784;2022-08-19T00:23:11;17.40;99.90
59301;DHT22;45073;52.740;6.784;2022-08-19T00:25:36;17.40;99.90
59301;DHT22;45073;52.740;6.784;2022-08-19T00:28:03;17.40;99.90
59301;DHT22;45073;52.740;6.784;2022-08-19T00:30:28;17.40;99.90
59301;DHT22;45073;52.740;6.784;2022-08-19T00:32:54;17.40;99.90
59301;DHT22;45073;52.740;6.784;2022-08-19T00:35:21;17.40;99.90
59301;DHT22;45073;52.740;6.784;2022-08-19T00:37:48;17.40;99.90
59301;DHT22;45073;52.740;6.784;2022-08-19T00:40:14;17.40;99.90
59301;DHT22;45073;52.740;6.784;2022-08-19T00:42:41;17.40;99.90
59301;DHT22;45073;52.740;6.784;2022-08-19T00:45:12;17.30;99.90
59301;DHT22;45073;52.740;6.784;2022-08-19T00:47:38;17.30;99.90
59301;DHT22;45073;52.740;6.784;2022-08-19T00:50:05;17.30;99.90
59301;DHT22;45073;52.740;6.784;2022-08-19T00:52:38;17.30;99.90
59301;DHT22;45073;52.740;6.784;2022-08-19T00:55:05;17.30;99.90
59301;DHT22;45073;52.740;6.784;2022-08-19T00:57:40;17.30;99.90
59301;DHT22;45073;52.740;6.784;2022-08-19T01:00:11;17.20;99.90
59301;DHT22;45073;52.740;6.784;2022-08-19T01:02:38;17.20;99.90
59301;DHT22;45073;52.740;6.784;2022-08-19T01:05:09;17.20;99.90
59301;DHT22;45073;52.740;6.784;2022-08-19T01:07:37;17.10;99.90
59301;DHT22;45073;52.740;6.784;2022-08-19T01:10:07;17.10;99.90
59301;DHT22;45073;52.740;6.784;2022-08-19T01:12:33;17.10;99.90
59301;DHT22;45073;52.740;6.784;2022-08-19T01:15:00;17.00;99.90
59301;DHT22;45073;52.740;6.784;2022-08-19T01:17:26;17.00;99.90
59301;DHT22;45073;52.740;6.784;2022-08-19T01:19:52;16.90;99.90
59301;DHT22;45073;52.740;6.784;2022-08-19T01:24:49;16.90;99.90
59301;DHT22;45073;52.740;6.784;2022-08-19T01:27:16;16.80;99.90
59301;DHT22;45073;52.740;6.784;2022-08-19T01:29:42;16.80;99.90
59301;DHT22;45073;52.740;6.784;2022-08-19T01:32:12;16.80;99.90
59301;DHT22;45073;52.740;6.784;2022-08-19T01:34:38;16.80;99.90
59301;DHT22;45073;52.740;6.784;2022-08-19T01:37:09;16.80;99.90
59301;DHT22;45073;52.740;6.784;2022-08-19T01:39:38;16.70;99.90
59301;DHT22;45073;52.740;6.784;2022-08-19T01:42:05;16.70;99.90
59301;DHT22;45073;52.740;6.784;2022-08-19T01:44:32;16.70;99.90
59301;DHT22;45073;52.740;6.784;2022-08-19T01:46:58;16.60;99.90
59301;DHT22;45073;52.740;6.784;2022-08-19T01:49:24;16.60;99.90
59301;DHT22;45073;52.740;6.784;2022-08-19T01:51:52;16.50;99.90
59301;DHT22;45073;52.740;6.784;2022-08-19T01:54:21;16.40;99.90
59301;DHT22;45073;52.740;6.784;2022-08-19T01:56:47;16.40;99.90
59301;DHT22;45073;52.740;6.784;2022-08-19T01:59:16;16.30;99.90
59301;DHT22;45073;52.740;6.784;2022-08-19T02:01:43;16.30;99.90
59301;DHT22;45073;52.740;6.784;2022-08-19T02:04:09;16.20;99.90
59301;DHT22;45073;52.740;6.784;2022-08-19T02:06:35;16.20;99.90
59301;DHT22;45073;52.740;6.784;2022-08-19T02:09:03;16.10;99.90
59301;DHT22;45073;52.740;6.784;2022-08-19T02:11:32;16.10;99.90
59301;DHT22;45073;52.740;6.784;2022-08-19T02:14:00;16.10;99.90
59301;DHT22;45073;52.740;6.784;2022-08-19T02:16:27;16.10;99.90
59301;DHT22;45073;52.740;6.784;2022-08-19T02:18:53;16.10;99.90
59301;DHT22;45073;52.740;6.784;2022-08-19T02:21:20;16.10;99.90
59301;DHT22;45073;52.740;6.784;2022-08-19T02:23:46;16.10;99.90
59301;DHT22;45073;52.740;6.784;2022-08-19T02:26:12;16.00;99.90
59301;DHT22;45073;52.740;6.784;2022-08-19T02:28:39;16.00;99.90
59301;DHT22;45073;52.740;6.784;2022-08-19T02:31:13;16.00;99.90
59301;DHT22;45073;52.740;6.784;2022-08-19T02:33:42;16.00;99.90
59301;DHT22;45073;52.740;6.784;2022-08-19T02:36:10;16.00;99.90
59301;DHT22;45073;52.740;6.784;2022-08-19T02:38:36;16.00;99.90
59301;DHT22;45073;52.740;6.784;2022-08-19T02:41:16;15.90;99.90
59301;DHT22;45073;52.740;6.784;2022-08-19T02:43:42;15.80;99.90
59301;DHT22;45073;52.740;6.784;2022-08-19T02:46:30;15.70;99.90
59301;DHT22;45073;52.740;6.784;2022-08-19T02:49:02;15.80;99.90
59301;DHT22;45073;52.740;6.784;2022-08-19T02:51:37;15.70;99.90
59301;DHT22;45073;52.740;6.784;2022-08-19T02:54:04;15.70;99.90
59301;DHT22;45073;52.740;6.784;2022-08-19T02:56:31;15.60;99.90
59301;DHT22;45073;52.740;6.784;2022-08-19T02:58:57;15.60;99.90
59301;DHT22;45073;52.740;6.784;2022-08-19T03:01:31;15.60;99.90
59301;DHT22;45073;52.740;6.784;2022-08-19T03:03:59;15.50;99.90
59301;DHT22;45073;52.740;6.784;2022-08-19T03:06:26;15.50;99.90
59301;DHT22;45073;52.740;6.784;2022-08-19T03:08:52;15.50;99.90
59301;DHT22;45073;52.740;6.784;2022-08-19T03:11:29;15.50;99.90
59301;DHT22;45073;52.740;6.784;2022-08-19T03:13:56;15.50;99.90
59301;DHT22;45073;52.740;6.784;2022-08-19T03:16:24;15.50;99.90
59301;DHT22;45073;52.740;6.784;2022-08-19T03:18:51;15.40;99.90
59301;DHT22;45073;52.740;6.784;2022-08-19T03:21:22;15.30;99.90
59301;DHT22;45073;52.740;6.784;2022-08-19T03:23:49;15.40;99.90
59301;DHT22;45073;52.740;6.784;2022-08-19T03:26:15;15.30;99.90
59301;DHT22;45073;52.740;6.784;2022-08-19T03:28:42;15.30;99.90
59301;DHT22;45073;52.740;6.784;2022-08-19T03:31:11;15.40;99.90
59301;DHT22;45073;52.740;6.784;2022-08-19T03:33:38;15.30;99.90
59301;DHT22;45073;52.740;6.784;2022-08-19T03:36:11;15.30;99.90
59301;DHT22;45073;52.740;6.784;2022-08-19T03:38:39;15.30;99.90
59301;DHT22;45073;52.740;6.784;2022-08-19T03:41:08;15.40;99.90
59301;DHT22;45073;52.740;6.784;2022-08-19T03:43:35;15.40;99.90
59301;DHT22;45073;52.740;6.784;2022-08-19T03:46:07;15.30;99.90
59301;DHT22;45073;52.740;6.784;2022-08-19T03:48:35;15.30;99.90
59301;DHT22;45073;52.740;6.784;2022-08-19T03:51:02;15.20;99.90
59301;DHT22;45073;52.740;6.784;2022-08-19T03:53:29;15.30;99.90
59301;DHT22;45073;52.740;6.784;2022-08-19T03:55:56;15.30;99.90
59301;DHT22;45073;52.740;6.784;2022-08-19T03:58:23;15.30;99.90
59301;DHT22;45073;52.740;6.784;2022-08-19T04:00:49;15.20;99.90
59301;DHT22;45073;52.740;6.784;2022-08-19T04:03:15;15.20;99.90
59301;DHT22;45073;52.740;6.784;2022-08-19T04:05:40;15.10;99.90
59301;DHT22;45073;52.740;6.784;2022-08-19T04:08:06;15.10;99.90
59301;DHT22;45073;52.740;6.784;2022-08-19T04:10:36;15.10;99.90
59301;DHT22;45073;52.740;6.784;2022-08-19T04:13:03;15.00;99.90
59301;DHT22;45073;52.740;6.784;2022-08-19T04:15:29;14.90;99.90
59301;DHT22;45073;52.740;6.784;2022-08-19T04:17:56;14.90;99.90
59301;DHT22;45073;52.740;6.784;2022-08-19T04:20:22;14.90;99.90
59301;DHT22;45073;52.740;6.784;2022-08-19T04:22:47;15.00;99.90
59301;DHT22;45073;52.740;6.784;2022-08-19T04:25:13;15.00;99.90
59301;DHT22;45073;52.740;6.784;2022-08-19T04:27:39;14.90;99.90
59301;DHT22;45073;52.740;6.784;2022-08-19T04:30:05;14.90;99.90
59301;DHT22;45073;52.740;6.784;2022-08-19T04:32:30;14.90;99.90
59301;DHT22;45073;52.740;6.784;2022-08-19T04:34:57;14.90;99.90
59301;DHT22;45073;52.740;6.784;2022-08-19T04:37:24;14.90;99.90
59301;DHT22;45073;52.740;6.784;2022-08-19T04:39:51;14.80;99.90
59301;DHT22;45073;52.740;6.784;2022-08-19T04:42:36;14.80;99.90
59301;DHT22;45073;52.740;6.784;2022-08-19T04:45:06;14.80;99.90
59301;DHT22;45073;52.740;6.784;2022-08-19T04:47:32;14.80;99.90
59301;DHT22;45073;52.740;6.784;2022-08-19T04:49:58;14.80;99.90
59301;DHT22;45073;52.740;6.784;2022-08-19T04:52:24;14.70;99.90
59301;DHT22;45073;52.740;6.784;2022-08-19T04:54:49;14.80;99.90
59301;DHT22;45073;52.740;6.784;2022-08-19T04:57:15;14.70;99.90
59301;DHT22;45073;52.740;6.784;2022-08-19T04:59:40;14.60;99.90
59301;DHT22;45073;52.740;6.784;2022-08-19T05:02:08;14.70;99.90
59301;DHT22;45073;52.740;6.784;2022-08-19T05:04:35;14.70;99.90
59301;DHT22;45073;52.740;6.784;2022-08-19T05:07:03;14.70;99.90
59301;DHT22;45073;52.740;6.784;2022-08-19T05:09:29;14.70;99.90
59301;DHT22;45073;52.740;6.784;2022-08-19T05:11:55;14.70;99.90
59301;DHT22;45073;52.740;6.784;2022-08-19T05:14:20;14.70;99.90
59301;DHT22;45073;52.740;6.784;2022-08-19T05:16:47;14.60;99.90
59301;DHT22;45073;52.740;6.784;2022-08-19T05:19:13;14.70;99.90
59301;DHT22;45073;52.740;6.784;2022-08-19T05:21:59;14.70;99.90
59301;DHT22;45073;52.740;6.784;2022-08-19T05:24:43;14.60;99.90
59301;DHT22;45073;52.740;6.784;2022-08-19T05:27:09;14.60;99.90
59301;DHT22;45073;52.740;6.784;2022-08-19T05:29:35;14.70;99.90
59301;DHT22;45073;52.740;6.784;2022-08-19T05:32:02;14.70;99.90
59301;DHT22;45073;52.740;6.784;2022-08-19T05:34:31;14.60;99.90
59301;DHT22;45073;52.740;6.784;2022-08-19T05:36:59;14.60;99.90
59301;DHT22;45073;52.740;6.784;2022-08-19T05:39:28;14.60;99.90
59301;DHT22;45073;52.740;6.784;2022-08-19T05:42:02;14.60;99.90
59301;DHT22;45073;52.740;6.784;2022-08-19T05:44:30;14.60;99.90
59301;DHT22;45073;52.740;6.784;2022-08-19T05:47:00;14.70;99.90
59301;DHT22;45073;52.740;6.784;2022-08-19T05:49:28;14.80;99.90
59301;DHT22;45073;52.740;6.784;2022-08-19T05:51:55;14.80;99.90
59301;DHT22;45073;52.740;6.784;2022-08-19T05:54:21;14.90;99.90
59301;DHT22;45073;52.740;6.784;2022-08-19T05:56:52;15.00;99.90
59301;DHT22;45073;52.740;6.784;2022-08-19T05:59:19;15.10;99.90
59301;DHT22;45073;52.740;6.784;2022-08-19T06:01:47;15.20;99.90
59301;DHT22;45073;52.740;6.784;2022-08-19T06:04:16;15.30;99.90
59301;DHT22;45073;52.740;6.784;2022-08-19T06:06:44;15.40;99.90
59301;DHT22;45073;52.740;6.784;2022-08-19T06:09:10;15.50;99.90
59301;DHT22;45073;52.740;6.784;2022-08-19T06:11:42;15.60;99.90
59301;DHT22;45073;52.740;6.784;2022-08-19T06:14:15;15.70;99.90
59301;DHT22;45073;52.740;6.784;2022-08-19T06:16:42;15.80;99.90
59301;DHT22;45073;52.740;6.784;2022-08-19T06:19:11;15.90;99.90
59301;DHT22;45073;52.740;6.784;2022-08-19T06:21:38;15.90;99.90
59301;DHT22;45073;52.740;6.784;2022-08-19T06:24:07;16.10;99.90
59301;DHT22;45073;52.740;6.784;2022-08-19T06:26:36;16.10;99.90
59301;DHT22;45073;52.740;6.784;2022-08-19T06:29:04;16.30;99.90
59301;DHT22;45073;52.740;6.784;2022-08-19T06:31:32;16.30;99.90
59301;DHT22;45073;52.740;6.784;2022-08-19T06:34:00;16.40;99.90
59301;DHT22;45073;52.740;6.784;2022-08-19T06:36:33;16.50;99.90
59301;DHT22;45073;52.740;6.784;2022-08-19T06:39:02;16.60;99.90
59301;DHT22;45073;52.740;6.784;2022-08-19T06:41:29;16.70;99.90
59301;DHT22;45073;52.740;6.784;2022-08-19T06:43:58;16.70;99.90
59301;DHT22;45073;52.740;6.784;2022-08-19T06:46:23;16.80;99.90
59301;DHT22;45073;52.740;6.784;2022-08-19T06:48:49;17.00;99.90
59301;DHT22;45073;52.740;6.784;2022-08-19T06:51:16;17.10;99.90
59301;DHT22;45073;52.740;6.784;2022-08-19T06:53:45;17.20;99.90
59301;DHT22;45073;52.740;6.784;2022-08-19T06:56:17;17.30;99.90
59301;DHT22;45073;52.740;6.784;2022-08-19T06:58:43;17.40;99.90
59301;DHT22;45073;52.740;6.784;2022-08-19T07:01:09;17.60;99.90
59301;DHT22;45073;52.740;6.784;2022-08-19T07:03:36;17.60;99.90
59301;DHT22;45073;52.740;6.784;2022-08-19T07:06:11;17.70;99.90
59301;DHT22;45073;52.740;6.784;2022-08-19T07:08:38;17.80;99.90
59301;DHT22;45073;52.740;6.784;2022-08-19T07:11:12;17.90;99.90
59301;DHT22;45073;52.740;6.784;2022-08-19T07:13:39;18.00;99.90
59301;DHT22;45073;52.740;6.784;2022-08-19T07:16:15;18.00;99.90
59301;DHT22;45073;52.740;6.784;2022-08-19T07:18:41;18.20;99.90
59301;DHT22;45073;52.740;6.784;2022-08-19T07:21:18;18.20;99.90
59301;DHT22;45073;52.740;6.784;2022-08-19T07:23:44;18.30;99.90
59301;DHT22;45073;52.740;6.784;2022-08-19T07:26:29;18.40;99.90
59301;DHT22;45073;52.740;6.784;2022-08-19T07:28:56;18.50;99.90
59301;DHT22;45073;52.740;6.784;2022-08-19T07:31:24;18.60;99.90
59301;DHT22;45073;52.740;6.784;2022-08-19T07:33:52;18.70;99.90
59301;DHT22;45073;52.740;6.784;2022-08-19T07:36:24;18.80;99.90
59301;DHT22;45073;52.740;6.784;2022-08-19T07:38:51;19.00;99.90
59301;DHT22;45073;52.740;6.784;2022-08-19T07:41:27;19.10;99.90
59301;DHT22;45073;52.740;6.784;2022-08-19T07:43:57;19.30;99.90
59301;DHT22;45073;52.740;6.784;2022-08-19T07:46:22;19.30;99.90
59301;DHT22;45073;52.740;6.784;2022-08-19T07:48:49;19.50;99.90
59301;DHT22;45073;52.740;6.784;2022-08-19T07:51:19;19.60;99.90
59301;DHT22;45073;52.740;6.784;2022-08-19T07:53:46;19.70;99.90
59301;DHT22;45073;52.740;6.784;2022-08-19T07:56:13;19.80;99.90
59301;DHT22;45073;52.740;6.784;2022-08-19T07:58:42;19.90;99.90
59301;DHT22;45073;52.740;6.784;2022-08-19T08:01:12;20.00;99.90
59301;DHT22;45073;52.740;6.784;2022-08-19T08:03:38;20.10;99.90
59301;DHT22;45073;52.740;6.784;2022-08-19T08:06:23;20.20;99.90
59301;DHT22;45073;52.740;6.784;2022-08-19T08:09:08;20.30;99.90
59301;DHT22;45073;52.740;6.784;2022-08-19T08:11:39;20.40;99.90
59301;DHT22;45073;52.740;6.784;2022-08-19T08:14:05;20.50;99.90
59301;DHT22;45073;52.740;6.784;2022-08-19T08:16:35;20.60;99.90
59301;DHT22;45073;52.740;6.784;2022-08-19T08:19:00;20.70;99.90
59301;DHT22;45073;52.740;6.784;2022-08-19T08:21:26;20.80;99.90
59301;DHT22;45073;52.740;6.784;2022-08-19T08:23:52;20.80;99.90
59301;DHT22;45073;52.740;6.784;2022-08-19T08:26:20;20.90;99.90
59301;DHT22;45073;52.740;6.784;2022-08-19T08:28:46;21.00;99.90
59301;DHT22;45073;52.740;6.784;2022-08-19T08:31:12;21.00;99.90
59301;DHT22;45073;52.740;6.784;2022-08-19T08:33:38;21.10;99.90
59301;DHT22;45073;52.740;6.784;2022-08-19T08:36:07;21.20;99.90
59301;DHT22;45073;52.740;6.784;2022-08-19T08:38:36;21.30;99.90
59301;DHT22;45073;52.740;6.784;2022-08-19T08:41:13;21.40;99.90
59301;DHT22;45073;52.740;6.784;2022-08-19T08:43:45;21.40;99.90
59301;DHT22;45073;52.740;6.784;2022-08-19T08:49:10;21.60;99.90
59301;DHT22;45073;52.740;6.784;2022-08-19T08:51:45;21.70;99.90
59301;DHT22;45073;52.740;6.784;2022-08-19T08:54:14;21.80;99.90
59301;DHT22;45073;52.740;6.784;2022-08-19T08:56:43;21.90;99.90
59301;DHT22;45073;52.740;6.784;2022-08-19T08:59:29;21.90;99.90
59301;DHT22;45073;52.740;6.784;2022-08-19T09:01:58;22.10;99.90
59301;DHT22;45073;52.740;6.784;2022-08-19T09:04:24;22.10;99.90
59301;DHT22;45073;52.740;6.784;2022-08-19T09:07:20;22.20;99.90
59301;DHT22;45073;52.740;6.784;2022-08-19T09:09:49;22.30;99.90
59301;DHT22;45073;52.740;6.784;2022-08-19T09:12:30;22.30;99.90
59301;DHT22;45073;52.740;6.784;2022-08-19T09:15:08;22.40;99.90
59301;DHT22;45073;52.740;6.784;2022-08-19T09:17:35;22.50;99.90
59301;DHT22;45073;52.740;6.784;2022-08-19T09:22:40;22.60;99.90
59301;DHT22;45073;52.740;6.784;2022-08-19T09:25:08;22.70;99.90
59301;DHT22;45073;52.740;6.784;2022-08-19T09:27:36;22.70;99.90
59301;DHT22;45073;52.740;6.784;2022-08-19T09:30:04;22.80;99.90
59301;DHT22;45073;52.740;6.784;2022-08-19T09:32:30;22.90;99.90
59301;DHT22;45073;52.740;6.784;2022-08-19T09:34:56;23.00;99.90
59301;DHT22;45073;52.740;6.784;2022-08-19T09:37:24;23.00;99.90
59301;DHT22;45073;52.740;6.784;2022-08-19T09:39:50;23.10;99.90
59301;DHT22;45073;52.740;6.784;2022-08-19T09:42:16;23.20;99.90
59301;DHT22;45073;52.740;6.784;2022-08-19T09:44:42;23.20;99.90
59301;DHT22;45073;52.740;6.784;2022-08-19T09:47:10;23.30;99.90
59301;DHT22;45073;52.740;6.784;2022-08-19T09:49:36;23.40;99.90
59301;DHT22;45073;52.740;6.784;2022-08-19T09:52:03;23.50;99.90
59301;DHT22;45073;52.740;6.784;2022-08-19T09:54:29;23.60;99.90
59301;DHT22;45073;52.740;6.784;2022-08-19T09:56:55;23.60;99.90
59301;DHT22;45073;52.740;6.784;2022-08-19T09:59:23;23.70;99.90
59301;DHT22;45073;52.740;6.784;2022-08-19T10:01:49;23.80;99.90
59301;DHT22;45073;52.740;6.784;2022-08-19T10:04:15;23.90;99.90
59301;DHT22;45073;52.740;6.784;2022-08-19T10:06:40;23.90;99.90
59301;DHT22;45073;52.740;6.784;2022-08-19T10:09:09;23.90;99.90
59301;DHT22;45073;52.740;6.784;2022-08-19T10:11:36;23.90;99.90
59301;DHT22;45073;52.740;6.784;2022-08-19T10:14:05;24.00;99.90
59301;DHT22;45073;52.740;6.784;2022-08-19T10:16:35;24.10;99.90
59301;DHT22;45073;52.740;6.784;2022-08-19T10:19:01;24.10;99.90
59301;DHT22;45073;52.740;6.784;2022-08-19T10:21:30;24.20;99.90
59301;DHT22;45073;52.740;6.784;2022-08-19T10:23:59;24.30;99.90
59301;DHT22;45073;52.740;6.784;2022-08-19T10:26:28;24.40;99.90
59301;DHT22;45073;52.740;6.784;2022-08-19T10:28:54;24.40;99.90
59301;DHT22;45073;52.740;6.784;2022-08-19T10:31:22;24.30;99.90
59301;DHT22;45073;52.740;6.784;2022-08-19T10:33:49;24.40;99.90
59301;DHT22;45073;52.740;6.784;2022-08-19T10:36:18;24.40;99.90
59301;DHT22;45073;52.740;6.784;2022-08-19T10:38:45;24.50;99.90
59301;DHT22;45073;52.740;6.784;2022-08-19T10:41:20;24.60;99.90
59301;DHT22;45073;52.740;6.784;2022-08-19T10:43:47;24.70;99.90
59301;DHT22;45073;52.740;6.784;2022-08-19T10:46:16;24.80;99.90
59301;DHT22;45073;52.740;6.784;2022-08-19T10:48:42;24.90;99.90
59301;DHT22;45073;52.740;6.784;2022-08-19T10:51:09;25.00;99.90
59301;DHT22;45073;52.740;6.784;2022-08-19T10:53:54;25.10;99.90
59301;DHT22;45073;52.740;6.784;2022-08-19T10:56:21;25.20;99.90
59301;DHT22;45073;52.740;6.784;2022-08-19T10:59:05;25.20;99.90
59301;DHT22;45073;52.740;6.784;2022-08-19T11:01:32;25.30;99.90
59301;DHT22;45073;52.740;6.784;2022-08-19T11:04:00;25.40;99.90
59301;DHT22;45073;52.740;6.784;2022-08-19T11:06:26;25.40;99.90
59301;DHT22;45073;52.740;6.784;2022-08-19T11:08:53;25.30;99.90
59301;DHT22;45073;52.740;6.784;2022-08-19T11:11:20;25.30;99.90
59301;DHT22;45073;52.740;6.784;2022-08-19T11:13:47;25.30;99.90
59301;DHT22;45073;52.740;6.784;2022-08-19T11:16:16;25.20;99.90
59301;DHT22;45073;52.740;6.784;2022-08-19T11:18:45;25.20;99.90
59301;DHT22;45073;52.740;6.784;2022-08-19T11:21:25;25.20;99.90
59301;DHT22;45073;52.740;6.784;2022-08-19T11:23:55;25.30;99.90
59301;DHT22;45073;52.740;6.784;2022-08-19T11:26:22;25.30;99.90
59301;DHT22;45073;52.740;6.784;2022-08-19T11:28:48;25.30;99.90
59301;DHT22;45073;52.740;6.784;2022-08-19T11:31:19;25.30;99.90
59301;DHT22;45073;52.740;6.784;2022-08-19T11:33:45;25.50;99.90
59301;DHT22;45073;52.740;6.784;2022-08-19T11:36:12;25.60;98.50
59301;DHT22;45073;52.740;6.784;2022-08-19T11:38:38;25.70;99.90
59301;DHT22;45073;52.740;6.784;2022-08-19T11:41:07;25.90;99.70
59301;DHT22;45073;52.740;6.784;2022-08-19T11:43:33;26.10;99.90
59301;DHT22;45073;52.740;6.784;2022-08-19T11:45:59;26.20;99.90
59301;DHT22;45073;52.740;6.784;2022-08-19T11:48:28;26.30;99.90
59301;DHT22;45073;52.740;6.784;2022-08-19T11:50:54;26.30;99.90
59301;DHT22;45073;52.740;6.784;2022-08-19T11:53:22;26.30;99.90
59301;DHT22;45073;52.740;6.784;2022-08-19T11:55:48;26.60;99.90
59301;DHT22;45073;52.740;6.784;2022-08-19T11:58:16;26.80;99.90
59301;DHT22;45073;52.740;6.784;2022-08-19T12:00:43;26.60;98.70
59301;DHT22;45073;52.740;6.784;2022-08-19T12:03:11;26.60;97.80
59301;DHT22;45073;52.740;6.784;2022-08-19T12:05:38;26.40;97.80
59301;DHT22;45073;52.740;6.784;2022-08-19T12:08:04;26.40;99.00
59301;DHT22;45073;52.740;6.784;2022-08-19T12:10:30;26.40;99.60
59301;DHT22;45073;52.740;6.784;2022-08-19T12:12:55;26.40;99.30
59301;DHT22;45073;52.740;6.784;2022-08-19T12:15:21;26.50;99.90
59301;DHT22;45073;52.740;6.784;2022-08-19T12:17:47;26.70;98.60
59301;DHT22;45073;52.740;6.784;2022-08-19T12:20:13;26.70;96.30
59301;DHT22;45073;52.740;6.784;2022-08-19T12:22:41;26.80;95.10
59301;DHT22;45073;52.740;6.784;2022-08-19T12:25:09;26.90;96.60
59301;DHT22;45073;52.740;6.784;2022-08-19T12:27:35;27.10;94.40
59301;DHT22;45073;52.740;6.784;2022-08-19T12:30:02;27.10;90.60
59301;DHT22;45073;52.740;6.784;2022-08-19T12:32:28;27.20;88.80
59301;DHT22;45073;52.740;6.784;2022-08-19T12:34:54;27.40;90.30
59301;DHT22;45073;52.740;6.784;2022-08-19T12:37:20;27.50;82.00
59301;DHT22;45073;52.740;6.784;2022-08-19T12:39:46;27.70;93.10
59301;DHT22;45073;52.740;6.784;2022-08-19T12:42:13;27.80;89.60
59301;DHT22;45073;52.740;6.784;2022-08-19T12:44:40;27.80;88.90
59301;DHT22;45073;52.740;6.784;2022-08-19T12:47:07;27.80;86.50
59301;DHT22;45073;52.740;6.784;2022-08-19T12:49:33;27.60;87.70
59301;DHT22;45073;52.740;6.784;2022-08-19T12:52:00;27.60;91.70
59301;DHT22;45073;52.740;6.784;2022-08-19T12:54:27;27.90;91.30
59301;DHT22;45073;52.740;6.784;2022-08-19T12:56:53;28.10;93.10
59301;DHT22;45073;52.740;6.784;2022-08-19T12:59:19;28.30;80.30
59301;DHT22;45073;52.740;6.784;2022-08-19T13:01:45;28.30;77.10
59301;DHT22;45073;52.740;6.784;2022-08-19T13:04:10;28.50;76.30
59301;DHT22;45073;52.740;6.784;2022-08-19T13:06:37;28.50;76.20
59301;DHT22;45073;52.740;6.784;2022-08-19T13:09:04;28.40;74.20
59301;DHT22;45073;52.740;6.784;2022-08-19T13:11:30;28.40;73.10
59301;DHT22;45073;52.740;6.784;2022-08-19T13:13:59;28.30;72.60
59301;DHT22;45073;52.740;6.784;2022-08-19T13:16:26;28.30;71.80
59301;DHT22;45073;52.740;6.784;2022-08-19T13:18:54;28.40;69.20
59301;DHT22;45073;52.740;6.784;2022-08-19T13:21:23;28.50;66.80
59301;DHT22;45073;52.740;6.784;2022-08-19T13:23:50;28.50;65.20
59301;DHT22;45073;52.740;6.784;2022-08-19T13:26:16;28.50;67.50
59301;DHT22;45073;52.740;6.784;2022-08-19T13:28:43;28.50;67.90
59301;DHT22;45073;52.740;6.784;2022-08-19T13:31:31;28.40;68.10
59301;DHT22;45073;52.740;6.784;2022-08-19T13:34:18;28.30;66.40
59301;DHT22;45073;52.740;6.784;2022-08-19T13:36:44;28.10;65.70
59301;DHT22;45073;52.740;6.784;2022-08-19T13:39:10;27.90;66.20
59301;DHT22;45073;52.740;6.784;2022-08-19T13:41:37;27.80;66.50
59301;DHT22;45073;52.740;6.784;2022-08-19T13:44:03;27.70;67.60
59301;DHT22;45073;52.740;6.784;2022-08-19T13:46:31;27.60;64.70
59301;DHT22;45073;52.740;6.784;2022-08-19T13:48:56;27.50;65.50
59301;DHT22;45073;52.740;6.784;2022-08-19T13:51:22;27.40;67.60
59301;DHT22;45073;52.740;6.784;2022-08-19T13:53:48;27.40;69.10
59301;DHT22;45073;52.740;6.784;2022-08-19T13:56:17;27.50;69.10
59301;DHT22;45073;52.740;6.784;2022-08-19T13:58:44;27.40;72.70
59301;DHT22;45073;52.740;6.784;2022-08-19T14:01:10;27.50;72.30
59301;DHT22;45073;52.740;6.784;2022-08-19T14:03:37;27.50;76.00
59301;DHT22;45073;52.740;6.784;2022-08-19T14:06:02;27.60;74.40
59301;DHT22;45073;52.740;6.784;2022-08-19T14:08:28;27.70;75.60
59301;DHT22;45073;52.740;6.784;2022-08-19T14:10:55;27.80;76.30
59301;DHT22;45073;52.740;6.784;2022-08-19T14:13:22;28.00;73.60
59301;DHT22;45073;52.740;6.784;2022-08-19T14:15:48;28.20;74.20
59301;DHT22;45073;52.740;6.784;2022-08-19T14:18:16;28.50;70.90
59301;DHT22;45073;52.740;6.784;2022-08-19T14:20:42;28.60;63.70
59301;DHT22;45073;52.740;6.784;2022-08-19T14:23:08;28.80;63.10
59301;DHT22;45073;52.740;6.784;2022-08-19T14:25:34;28.90;63.20
59301;DHT22;45073;52.740;6.784;2022-08-19T14:28:00;28.90;59.10
59301;DHT22;45073;52.740;6.784;2022-08-19T14:30:29;28.90;60.80
59301;DHT22;45073;52.740;6.784;2022-08-19T14:32:57;29.00;63.40
59301;DHT22;45073;52.740;6.784;2022-08-19T14:35:24;29.10;64.40
59301;DHT22;45073;52.740;6.784;2022-08-19T14:37:50;29.20;64.50
59301;DHT22;45073;52.740;6.784;2022-08-19T14:40:21;29.30;64.60
59301;DHT22;45073;52.740;6.784;2022-08-19T14:42:51;29.30;66.00
59301;DHT22;45073;52.740;6.784;2022-08-19T14:45:17;29.30;64.80
59301;DHT22;45073;52.740;6.784;2022-08-19T14:47:43;29.30;64.40
59301;DHT22;45073;52.740;6.784;2022-08-19T14:50:10;29.40;64.70
59301;DHT22;45073;52.740;6.784;2022-08-19T14:52:36;29.40;61.90
59301;DHT22;45073;52.740;6.784;2022-08-19T14:55:03;29.30;60.60
59301;DHT22;45073;52.740;6.784;2022-08-19T14:57:29;29.30;58.80
59301;DHT22;45073;52.740;6.784;2022-08-19T14:59:55;29.20;60.60
59301;DHT22;45073;52.740;6.784;2022-08-19T15:02:22;29.00;61.20
59301;DHT22;45073;52.740;6.784;2022-08-19T15:04:48;28.90;62.30
59301;DHT22;45073;52.740;6.784;2022-08-19T15:07:13;28.70;62.60
59301;DHT22;45073;52.740;6.784;2022-08-19T15:09:39;28.60;64.60
59301;DHT22;45073;52.740;6.784;2022-08-19T15:12:05;28.50;64.80
59301;DHT22;45073;52.740;6.784;2022-08-19T15:14:31;28.50;66.30
59301;DHT22;45073;52.740;6.784;2022-08-19T15:16:59;28.50;70.20
59301;DHT22;45073;52.740;6.784;2022-08-19T15:19:24;28.50;75.70
59301;DHT22;45073;52.740;6.784;2022-08-19T15:21:50;28.50;81.70
59301;DHT22;45073;52.740;6.784;2022-08-19T15:24:16;28.50;86.40
59301;DHT22;45073;52.740;6.784;2022-08-19T15:26:42;28.40;89.10
59301;DHT22;45073;52.740;6.784;2022-08-19T15:29:08;28.40;88.70
59301;DHT22;45073;52.740;6.784;2022-08-19T15:31:35;28.40;89.00
59301;DHT22;45073;52.740;6.784;2022-08-19T15:34:01;28.40;89.10
59301;DHT22;45073;52.740;6.784;2022-08-19T15:36:27;28.30;89.10
59301;DHT22;45073;52.740;6.784;2022-08-19T15:38:56;28.20;90.50
59301;DHT22;45073;52.740;6.784;2022-08-19T15:41:27;28.10;91.20
59301;DHT22;45073;52.740;6.784;2022-08-19T15:44:07;28.10;92.40